ADDS METAR Data INFO
IDs: Format: Raw Decoded Include TAF

Data at: 2053 UTC 24 Jun 2017

KBYY 242035Z AUTO 31003KT 10SM SCT060 BKN085 28/24 A3004 RMK AO2 P0001 T02890242
KBYY 242015Z AUTO 00000KT 10SM SCT060 SCT080 SCT085 28/23 A3005 RMK AO2 T02910241
KBYY 241955Z AUTO 00000KT 10SM SCT070 28/24 A3006 RMK AO2 T02840244
KBYY 241935Z AUTO 02003KT 10SM SCT070 27/25 A3006 RMK AO2 T02720245
KBYY 241915Z AUTO 35005KT 10SM SCT060 SCT070 26/24 A3006 RMK AO2 T02570243
KBYY 241855Z AUTO 36007KT 5SM -RA SCT014 BKN037 OVC060 25/23 A3007 RMK AO2 P0035 T02510238
KBYY 241835Z AUTO 35009KT 1 3/4SM +RA SCT010 SCT023 OVC027 25/23 A3008 RMK AO2 P0013 T02600235
KBYY 241815Z AUTO 36011G14KT 10SM SCT013 BKN027 OVC034 26/23 A3007 RMK AO2 T02720233
KBYY 241755Z AUTO 36012G16KT 10SM SCT013 BKN029 OVC100 29/23 A3006 RMK AO2 T03100236
KBYY 241735Z AUTO 18005KT 10SM SCT070 BKN090 32/23 A3005 RMK AO2 T03190234
KBYY 241715Z AUTO 16006KT 10SM SCT070 SCT090 31/23 A3005 RMK AO2 T03180235
KBYY 241655Z AUTO 15007KT 10SM SCT029 SCT035 SCT050 31/23 A3004 RMK AO2 T03160237
KBYY 241635Z AUTO 14006KT 10SM SCT031 SCT037 SCT050 31/23 A3003 RMK AO2 T03130235
KBYY 241615Z AUTO 16005KT 10SM SCT029 SCT070 31/23 A3003 RMK AO2 T03110239
KBYY 241555Z AUTO 14008KT 10SM SCT027 SCT032 31/25 A3002 RMK AO2 T03100245
KBYY 241535Z AUTO 15007KT 10SM CLR 31/25 A3000 RMK AO2 T03050249
KBYY 241515Z AUTO 16008KT 10SM SCT019 SCT027 BKN038 30/25 A3000 RMK AO2 T03040250
KBYY 241455Z AUTO 15007KT 10SM SCT019 BKN027 BKN039 31/25 A3000 RMK AO2 T03000257
KBYY 241435Z AUTO 13004KT 10SM SCT015 SCT019 SCT028 29/26 A2999 RMK AO2 T02880259
KBYY 241415Z AUTO 13005KT 7SM SCT036 SCT065 28/26 A2999 RMK AO2 T02810262
KBYY 241355Z AUTO 16003KT 7SM CLR 27/26 A2997 RMK AO2 T02750265
KBYY 241335Z AUTO 00000KT 5SM BR SCT014 SCT020 SCT027 27/26 A2997 RMK AO2 T02710263
KBYY 241315Z AUTO 00000KT 5SM BR SCT015 SCT020 BKN038 27/26 A2997 RMK AO2 T02680261
KBYY 241255Z AUTO 00000KT 5SM BR SCT020 SCT027 SCT032 26/26 A2997 RMK AO2 T02650261
KBYY 241235Z AUTO 12003KT 5SM BR SCT013 SCT018 BKN027 26/26 A2997 RMK AO2 T02640260
KBYY 241215Z AUTO 09003KT 3SM BR BKN013 BKN022 BKN028 26/25 A2996 RMK AO2 T02630258
KBYY 241155Z AUTO 00000KT 4SM -RA CLR 26/26 A2996 RMK AO2 T02660260
KBYY 241135Z AUTO 00000KT 5SM BR SCT012 SCT023 SCT035 26/26 A2995 RMK AO2 T02690262
KBYY 241115Z AUTO 00000KT 7SM SCT012 BKN017 OVC055 27/26 A2995 RMK AO2 T02700264
KBYY 241055Z AUTO 00000KT 7SM SCT014 BKN027 27/26 A2995 RMK AO2 T02710263
KBYY 241035Z AUTO 15003KT 7SM SCT013 SCT019 BKN027 27/26 A2994 RMK AO2 T02730264
KBYY 241015Z AUTO 15003KT 7SM SCT017 BKN029 27/26 A2994 RMK AO2 T02720265
KBYY 240955Z AUTO 14003KT 7SM SCT014 SCT022 BKN029 27/26 A2993 RMK AO2 T02710266
KBYY 240935Z AUTO 15003KT 5SM BR BKN012 BKN024 BKN029 27/26 A2992 RMK AO2 T02690265
KBYY 240915Z AUTO 12003KT 5SM BR BKN012 BKN022 BKN030 26/26 A2992 RMK AO2 T02670263
KBYY 240855Z AUTO 06003KT 5SM BR BKN012 BKN022 OVC029 26/26 A2993 RMK AO2 T02680263
KBYY 240835Z AUTO 00000KT 5SM BR BKN012 BKN017 OVC027 27/26 A2992 RMK AO2 T02700265
KBYY 240815Z AUTO 00000KT 7SM BKN012 BKN019 OVC029 27/26 A2993 RMK AO2 T02710265
KBYY 240755Z AUTO 00000KT 7SM SCT014 BKN022 OVC028 27/26 A2992 RMK AO2 T02700264
KBYY 240735Z AUTO 00000KT 7SM SCT012 BKN020 OVC036 27/26 A2993 RMK AO2 T02710265
KBYY 240715Z AUTO 00000KT 7SM BKN014 BKN019 OVC036 27/26 A2993 RMK AO2 T02710265
KBYY 240700Z AUTO 00000KT 7SM BKN016 BKN030 BKN036 27/26 A2993 RMK AO2 T02680262
KBYY 240635Z AUTO 00000KT 7SM BKN014 BKN022 OVC027 26/26 A2993 RMK AO2 T02670260
KBYY 240615Z AUTO 00000KT 7SM BKN014 BKN021 BKN027 26/26 A2993 RMK AO2 T02660260
KBYY 240555Z AUTO 14003KT 7SM SCT016 BKN025 BKN030 26/26 A2992 RMK AO2 T02670260
KBYY 240535Z AUTO 00000KT 7SM SCT014 SCT023 26/26 A2992 RMK AO2 T02680260
KBYY 240515Z AUTO 12003KT 7SM SCT015 26/26 A2991 RMK AO2 T02670260
KBYY 240455Z AUTO 12004KT 7SM SCT014 SCT021 SCT027 26/25 A2991 RMK AO2 T02660257
KBYY 240435Z AUTO 10003KT 7SM SCT014 SCT021 26/25 A2991 RMK AO2 T02650256
KBYY 240415Z AUTO 11003KT 7SM CLR 26/25 A2990 RMK AO2 T02630253
KBYY 240355Z AUTO 10003KT 7SM CLR 26/25 A2990 RMK AO2 T02660253
KBYY 240335Z AUTO 10004KT 10SM SCT019 SCT023 SCT034 26/25 A2989 RMK AO2 T02670253
KBYY 240315Z AUTO 11004KT 10SM CLR 26/25 A2988 RMK AO2 T02690252
KBYY 240255Z AUTO 12003KT 10SM SCT020 SCT026 SCT032 27/25 A2988 RMK AO2 T02700252
KBYY 240235Z AUTO 00000KT 10SM SCT018 27/25 A2987 RMK AO2 T02710251
KBYY 240215Z AUTO 13003KT 10SM CLR 27/25 A2985 RMK AO2 T02750251
KBYY 240155Z AUTO 14003KT 10SM CLR 27/25 A2985 RMK AO2 T02820251
KBYY 240135Z AUTO 15003KT 10SM CLR 28/25 A2985 RMK AO2 T02880250
KBYY 240115Z AUTO 15005KT 10SM SCT019 29/25 A2984 RMK AO2 T02940250
KBYY 240055Z AUTO 15009KT 10SM SCT022 SCT026 29/25 A2983 RMK AO2 T02980250
KBYY 240035Z AUTO 16007KT 10SM BKN022 BKN033 30/25 A2983 RMK AO2 T03060250
KBYY 240015Z AUTO 15009KT 10SM SCT022 31/25 A2982 RMK AO2 T03090249
KBYY 232355Z AUTO 16010KT 10SM SCT022 SCT028 SCT033 30/25 A2982 RMK AO2 T03110250
KBYY 232335Z AUTO 16011KT 10SM SCT024 SCT031 SCT040 31/25 A2982 RMK AO2 T03140250
KBYY 232315Z AUTO 17009KT 10SM SCT022 SCT028 SCT040 31/25 A2982 RMK AO2 T03160250
KBYY 232255Z AUTO 17011KT 10SM SCT024 SCT030 SCT036 31/25 A2982 RMK AO2 T03220245
KBYY 232235Z AUTO 17011KT 10SM SCT028 BKN036 32/24 A2982 RMK AO2 T03240246
KBYY 232215Z AUTO 14010G15KT 10SM SCT028 BKN038 32/25 A2982 RMK AO2 T03260246
KBYY 232155Z AUTO 17009KT 7SM SCT030 BKN038 32/24 A2982 RMK AO2 T03260243
KBYY 232135Z AUTO 16010KT 10SM SCT030 SCT038 32/24 A2983 RMK AO2 T03260244
KBYY 232115Z AUTO 17011G15KT 10SM SCT030 SCT036 SCT047 32/24 A2984 RMK AO2 T03290244
KBYY 232055Z AUTO 17010G14KT 10SM SCT031 SCT038 32/24 A2983 RMK AO2 T03300242
KBYY 232035Z AUTO 16010G14KT 10SM SCT031 SCT036 32/24 A2984 RMK AO2 T03310241
KBYY 232015Z AUTO 17011KT 10SM BKN029 BKN036 33/23 A2984 RMK AO2 T03260242
KBYY 231955Z AUTO 15011G16KT 10SM BKN027 BKN036 32/24 A2984 RMK AO2 T03240247
KBYY 231935Z AUTO 17012KT 7SM SCT025 BKN033 BKN039 32/25 A2985 RMK AO2 T03270248
KBYY 231915Z AUTO 15010G14KT 7SM SCT030 SCT036 33/25 A2985 RMK AO2 T03310246
KBYY 231855Z AUTO 17008KT 10SM SCT030 SCT038 33/24 A2985 RMK AO2 T03320241
KBYY 231835Z AUTO 18007KT 10SM SCT030 SCT038 33/24 A2985 RMK AO2 T03320240
KBYY 231815Z AUTO 17008KT 10SM SCT032 BKN037 32/24 A2986 RMK AO2 T03290243
KBYY 231755Z AUTO 17009G15KT 10SM SCT029 32/24 A2985 RMK AO2 T03290244
KBYY 231735Z AUTO 19010KT 10SM SCT029 32/24 A2985 RMK AO2 T03280245
KBYY 231715Z AUTO 16011KT 10SM BKN029 BKN034 32/24 A2984 RMK AO2 T03270242
KBYY 231655Z AUTO 18010G15KT 10SM BKN029 BKN037 32/24 A2984 RMK AO2 T03240242
KBYY 231635Z AUTO 19010KT 10SM SCT029 SCT034 31/23 A2983 RMK AO2 T03220239
KBYY 231615Z AUTO 19011G16KT 10SM SCT029 SCT036 32/23 A2983 RMK AO2 T03230238
KBYY 231555Z AUTO 18013KT 10SM BKN029 BKN036 32/24 A2983 RMK AO2 T03160242
KBYY 231535Z AUTO 20010KT 10SM SCT029 30/24 A2983 RMK AO2 T03080241
KBYY 231515Z AUTO 18012KT 10SM SCT024 SCT029 31/24 A2983 RMK AO2 T03100243
KBYY 231455Z AUTO 18013KT 10SM SCT024 SCT029 30/24 A2982 RMK AO2 T03070244
KBYY 231435Z AUTO 19011KT 10SM SCT024 SCT029 30/24 A2982 RMK AO2 T02950244
KBYY 231415Z AUTO 18009G14KT 10SM SCT022 SCT030 29/24 A2982 RMK AO2 T02970245
KBYY 231355Z AUTO 18012KT 10SM SCT022 SCT032 29/24 A2981 RMK AO2 T02930246
KBYY 231335Z AUTO 18011KT 10SM SCT022 SCT030 29/25 A2981 RMK AO2 T02900248
KBYY 231315Z AUTO 19008KT 10SM SCT022 SCT029 28/24 A2981 RMK AO2 T02840246
KBYY 231255Z AUTO 18009KT 10SM CLR 28/25 A2980 RMK AO2 T02810247
KBYY 231235Z AUTO 18007KT 10SM SCT022 SCT030 27/25 A2980 RMK AO2 T02730247
KBYY 231215Z AUTO 17006KT 10SM BKN030 27/24 A2979 RMK AO2 T02690247
KBYY 231155Z AUTO 17005KT 10SM SCT021 BKN030 26/25 A2979 RMK AO2 T02690249
KBYY 231135Z AUTO 18005KT 10SM BKN019 OVC030 27/25 A2979 RMK AO2 T02720250
KBYY 231115Z AUTO 17005KT 10SM BKN017 BKN025 OVC030 27/25 A2978 RMK AO2 T02720250
KBYY 231055Z AUTO 17006KT 10SM SCT018 BKN030 27/25 A2977 RMK AO2 T02710251
KBYY 231035Z AUTO 18006KT 10SM SCT030 27/25 A2977 RMK AO2 T02720251
KBYY 231015Z AUTO 17005KT 10SM SCT030 27/25 A2977 RMK AO2 T02710252
KBYY 230955Z AUTO 17006KT 10SM SCT028 27/25 A2977 RMK AO2 T02710251
KBYY 230935Z AUTO 17005KT 10SM SCT026 27/25 A2977 RMK AO2 T02710251
KBYY 230915Z AUTO 17006KT 10SM SCT015 SCT026 27/25 A2977 RMK AO2 T02710253
KBYY 230855Z AUTO 17005KT 10SM SCT017 BKN024 27/25 A2977 RMK AO2 T02720253


Page loaded:  20:53 UTC  |   01:53 PM Pacific  |   02:53 PM Mountain  |   03:53 PM Central  |   04:53 PM Eastern

 

ADVISORIES

FORECASTS

FORECASTS

OBSERVATIONS

USER TOOLS

ABOUT US